Terminal Aerodrome Forecast
Issued by NWS

Home | Current Version | Previous Version | Text Only | Print | Product List | Glossary On
Versions: 1 2 3 4 5 6 7 8 9 10 11 12 13 14 15
000
FTUS43 KGRB 051139
TAFRHI
TAF
KRHI 051139Z 0512/0612 34007KT P6SM FEW100 SCT200
      TEMPO 0512/0513 3SM BR
     FM051600 29006KT P6SM SCT100 SCT250
     FM060000 24005KT P6SM SCT100=

USA.gov is the U.S. government's official web portal to all federal, state and local government web resources and services.